Limoges, France

5:14 PM CEST on September 02, 2014 (GMT +0200)
South Limoges | Change Station
CLOSE
Current Station
Personal Weather Station
Location: Limoges,
Elevation: 860 ft
Nearby Weather Stations

Elev 860 ft 45.82 °N, 1.28 °E | Updated 4 minutes ago

Clear
Clear
74.6 °F
Feels Like 77 °F
N
5.0
Wind Variable Wind from NNW
Gusts 5.0 mph

Today
High -- | Low -- °F
--% Chance of Precip.
Yesterday
High -- | Low -- °F
Precip. -- in
7:17 AM 8:31 PM
First Quarter, 52% visible
Pressure 30.06 in
Visibility 6.2 miles
Clouds
Heat Index 77 °F
Dew Point 54 °F
Humidity 48%
Rainfall 0.00 in
Snow Depth Not available.
UV Not available.
Pollen Not available.
Air Quality Not available.
Flu Activity Not available.
METAR LFBL 021500Z AUTO 06013KT 030V090 9999 NSC 22/09 Q1018

More Conditions Fewer Conditions

Pressure 30.06 in
Visibility 6.2 miles
Clouds
Heat Index 77 °F
Dew Point 54 °F
Humidity 48%
Rainfall 0.00 in
Snow Depth Not available.
UV Not available.
Pollen Not available.
Air Quality Not available.
Flu Activity Not available.
METAR LFBL 021500Z AUTO 06013KT 030V090 9999 NSC 22/09 Q1018

More Conditions Fewer Conditions

10-Day Weather Forecast

Almanac

Astronomy

Sep. 02, 2014 Rise Set
Actual Time 7:17 AM CEST 8:31 PM CEST
Civil Twilight 6:46 AM CEST 9:02 PM CEST
Nautical Twilight 6:09 AM CEST 9:39 PM CEST
Astronomical Twilight 5:29 AM CEST 10:18 PM CEST
Moon 3:09 PM CEST 12:01 AM CEST
Length of Visible Light 14h 16m
Length of Day
13h 14m
Tomorrow will be 3m 8s shorter.
First Quarter, 52% of the Moon is Illuminated
Today
First Quarter
Sep 8
Full
Sep 15
Last Quarter
Sep 24
New
Oct 1
First Quarter

Today's Extremes

Country Highs Country Lows

Community

WunderPhotos

Upload Photos

1,749,690 photos uploaded!

WunderBlogs® & News

Nearby

Snow Depth

Not available.

Earthquake Activity

City Distance Mag. Time & Date
No recent earthquake activity has been reported nearby.
Minimum magnitude displayed is 2.5.

Coastal Water Temperatures

Place Temperature
No Stations Reporting

Nearby Weather Stations